sensor_id;sensor_type;location;lat;lon;timestamp;P1;durP1;ratioP1;P2;durP2;ratioP2
47531;SDS011;33273;52.254;7.988;2022-12-29T00:01:28;5.40;;;4.50;;
47531;SDS011;33273;52.254;7.988;2022-12-29T00:03:53;5.13;;;4.57;;
47531;SDS011;33273;52.254;7.988;2022-12-29T00:06:19;6.00;;;4.68;;
47531;SDS011;33273;52.254;7.988;2022-12-29T00:08:46;4.93;;;4.20;;
47531;SDS011;33273;52.254;7.988;2022-12-29T00:11:17;8.03;;;4.27;;
47531;SDS011;33273;52.254;7.988;2022-12-29T00:13:46;5.22;;;4.50;;
47531;SDS011;33273;52.254;7.988;2022-12-29T00:16:37;5.40;;;4.32;;
47531;SDS011;33273;52.254;7.988;2022-12-29T00:19:05;5.80;;;4.38;;
47531;SDS011;33273;52.254;7.988;2022-12-29T00:21:31;5.20;;;4.67;;
47531;SDS011;33273;52.254;7.988;2022-12-29T00:24:17;5.82;;;4.53;;
47531;SDS011;33273;52.254;7.988;2022-12-29T00:29:42;5.63;;;4.25;;
47531;SDS011;33273;52.254;7.988;2022-12-29T00:32:40;5.53;;;4.25;;
47531;SDS011;33273;52.254;7.988;2022-12-29T00:35:28;7.75;;;4.13;;
47531;SDS011;33273;52.254;7.988;2022-12-29T00:38:06;5.68;;;4.05;;
47531;SDS011;33273;52.254;7.988;2022-12-29T00:40:52;4.88;;;4.30;;
47531;SDS011;33273;52.254;7.988;2022-12-29T00:43:36;5.28;;;4.43;;
47531;SDS011;33273;52.254;7.988;2022-12-29T00:46:21;5.07;;;3.85;;
47531;SDS011;33273;52.254;7.988;2022-12-29T00:48:48;4.50;;;3.85;;
47531;SDS011;33273;52.254;7.988;2022-12-29T00:51:44;5.25;;;3.63;;
47531;SDS011;33273;52.254;7.988;2022-12-29T00:54:10;5.60;;;4.32;;
47531;SDS011;33273;52.254;7.988;2022-12-29T00:56:36;5.75;;;3.42;;
47531;SDS011;33273;52.254;7.988;2022-12-29T00:59:03;6.17;;;3.53;;
47531;SDS011;33273;52.254;7.988;2022-12-29T01:01:32;4.25;;;3.40;;
47531;SDS011;33273;52.254;7.988;2022-12-29T01:03:58;4.78;;;3.42;;
47531;SDS011;33273;52.254;7.988;2022-12-29T01:06:25;5.85;;;3.80;;
47531;SDS011;33273;52.254;7.988;2022-12-29T01:08:51;4.25;;;3.08;;
47531;SDS011;33273;52.254;7.988;2022-12-29T01:11:36;3.53;;;3.03;;
47531;SDS011;33273;52.254;7.988;2022-12-29T01:14:05;3.10;;;2.60;;
47531;SDS011;33273;52.254;7.988;2022-12-29T01:16:32;4.95;;;3.65;;
47531;SDS011;33273;52.254;7.988;2022-12-29T01:18:58;4.60;;;3.13;;
47531;SDS011;33273;52.254;7.988;2022-12-29T01:21:24;5.32;;;2.75;;
47531;SDS011;33273;52.254;7.988;2022-12-29T01:23:50;4.18;;;2.83;;
47531;SDS011;33273;52.254;7.988;2022-12-29T01:26:16;4.35;;;2.90;;
47531;SDS011;33273;52.254;7.988;2022-12-29T01:28:43;3.55;;;2.35;;
47531;SDS011;33273;52.254;7.988;2022-12-29T01:31:10;3.92;;;2.88;;
47531;SDS011;33273;52.254;7.988;2022-12-29T01:33:38;3.10;;;2.40;;
47531;SDS011;33273;52.254;7.988;2022-12-29T01:36:04;3.47;;;2.20;;
47531;SDS011;33273;52.254;7.988;2022-12-29T01:38:32;3.22;;;2.40;;
47531;SDS011;33273;52.254;7.988;2022-12-29T01:40:59;3.50;;;2.55;;
47531;SDS011;33273;52.254;7.988;2022-12-29T01:51:28;2.85;;;2.30;;
47531;SDS011;33273;52.254;7.988;2022-12-29T01:53:57;4.60;;;2.90;;
47531;SDS011;33273;52.254;7.988;2022-12-29T01:56:25;3.05;;;2.38;;
47531;SDS011;33273;52.254;7.988;2022-12-29T01:58:54;3.47;;;2.72;;
47531;SDS011;33273;52.254;7.988;2022-12-29T02:01:26;3.90;;;3.17;;
47531;SDS011;33273;52.254;7.988;2022-12-29T02:03:53;6.68;;;4.05;;
47531;SDS011;33273;52.254;7.988;2022-12-29T02:06:21;4.13;;;3.60;;
47531;SDS011;33273;52.254;7.988;2022-12-29T02:08:53;4.00;;;3.55;;
47531;SDS011;33273;52.254;7.988;2022-12-29T02:11:21;4.55;;;3.67;;
47531;SDS011;33273;52.254;7.988;2022-12-29T02:13:50;4.82;;;3.78;;
47531;SDS011;33273;52.254;7.988;2022-12-29T02:27:21;4.07;;;2.85;;
47531;SDS011;33273;52.254;7.988;2022-12-29T02:38:47;3.47;;;3.10;;
47531;SDS011;33273;52.254;7.988;2022-12-29T02:41:21;4.15;;;3.47;;
47531;SDS011;33273;52.254;7.988;2022-12-29T02:44:16;7.78;;;3.67;;
47531;SDS011;33273;52.254;7.988;2022-12-29T02:47:03;3.78;;;3.20;;
47531;SDS011;33273;52.254;7.988;2022-12-29T02:49:38;3.95;;;2.92;;
47531;SDS011;33273;52.254;7.988;2022-12-29T02:52:13;3.17;;;2.88;;
47531;SDS011;33273;52.254;7.988;2022-12-29T02:54:43;3.97;;;3.13;;
47531;SDS011;33273;52.254;7.988;2022-12-29T03:00:03;2.53;;;2.13;;
47531;SDS011;33273;52.254;7.988;2022-12-29T03:08:23;3.75;;;2.03;;
47531;SDS011;33273;52.254;7.988;2022-12-29T03:24:19;2.80;;;1.45;;
47531;SDS011;33273;52.254;7.988;2022-12-29T03:26:49;2.80;;;1.95;;
47531;SDS011;33273;52.254;7.988;2022-12-29T03:29:18;3.42;;;1.77;;
47531;SDS011;33273;52.254;7.988;2022-12-29T03:31:48;1.95;;;1.20;;
47531;SDS011;33273;52.254;7.988;2022-12-29T03:34:16;2.20;;;1.40;;
47531;SDS011;33273;52.254;7.988;2022-12-29T03:36:49;1.92;;;1.40;;
47531;SDS011;33273;52.254;7.988;2022-12-29T03:39:19;2.67;;;1.40;;
47531;SDS011;33273;52.254;7.988;2022-12-29T03:41:48;2.47;;;1.83;;
47531;SDS011;33273;52.254;7.988;2022-12-29T03:44:20;1.70;;;1.13;;
47531;SDS011;33273;52.254;7.988;2022-12-29T03:46:48;2.70;;;1.13;;
47531;SDS011;33273;52.254;7.988;2022-12-29T03:49:15;0.95;;;0.80;;
47531;SDS011;33273;52.254;7.988;2022-12-29T03:51:41;1.80;;;1.10;;
47531;SDS011;33273;52.254;7.988;2022-12-29T03:54:07;2.53;;;1.27;;
47531;SDS011;33273;52.254;7.988;2022-12-29T03:56:33;1.70;;;1.10;;
47531;SDS011;33273;52.254;7.988;2022-12-29T03:59:00;2.50;;;1.00;;
47531;SDS011;33273;52.254;7.988;2022-12-29T04:01:30;1.90;;;1.20;;
47531;SDS011;33273;52.254;7.988;2022-12-29T04:03:56;2.08;;;1.15;;
47531;SDS011;33273;52.254;7.988;2022-12-29T04:06:22;1.57;;;1.17;;
47531;SDS011;33273;52.254;7.988;2022-12-29T04:09:03;5.07;;;1.30;;
47531;SDS011;33273;52.254;7.988;2022-12-29T04:11:33;2.17;;;1.10;;
47531;SDS011;33273;52.254;7.988;2022-12-29T04:14:00;1.20;;;1.00;;
47531;SDS011;33273;52.254;7.988;2022-12-29T04:16:28;1.83;;;1.20;;
47531;SDS011;33273;52.254;7.988;2022-12-29T04:18:55;2.38;;;1.45;;
47531;SDS011;33273;52.254;7.988;2022-12-29T04:21:22;2.63;;;1.10;;
47531;SDS011;33273;52.254;7.988;2022-12-29T04:23:48;2.05;;;1.30;;
47531;SDS011;33273;52.254;7.988;2022-12-29T04:26:15;2.72;;;1.10;;
47531;SDS011;33273;52.254;7.988;2022-12-29T04:29:04;3.42;;;1.20;;
47531;SDS011;33273;52.254;7.988;2022-12-29T04:31:41;2.08;;;1.23;;
47531;SDS011;33273;52.254;7.988;2022-12-29T04:34:07;1.63;;;0.93;;
47531;SDS011;33273;52.254;7.988;2022-12-29T04:36:33;3.60;;;1.10;;
47531;SDS011;33273;52.254;7.988;2022-12-29T04:38:59;1.75;;;1.10;;
47531;SDS011;33273;52.254;7.988;2022-12-29T04:41:27;1.80;;;1.15;;
47531;SDS011;33273;52.254;7.988;2022-12-29T04:43:53;1.95;;;1.20;;
47531;SDS011;33273;52.254;7.988;2022-12-29T04:46:28;1.58;;;1.10;;
47531;SDS011;33273;52.254;7.988;2022-12-29T04:48:58;1.73;;;1.13;;
47531;SDS011;33273;52.254;7.988;2022-12-29T04:52:05;1.98;;;1.17;;
47531;SDS011;33273;52.254;7.988;2022-12-29T04:54:33;2.28;;;1.27;;
47531;SDS011;33273;52.254;7.988;2022-12-29T04:57:12;1.52;;;1.00;;
47531;SDS011;33273;52.254;7.988;2022-12-29T04:59:38;2.03;;;1.25;;
47531;SDS011;33273;52.254;7.988;2022-12-29T05:02:06;2.03;;;1.02;;
47531;SDS011;33273;52.254;7.988;2022-12-29T05:04:33;2.67;;;1.08;;
47531;SDS011;33273;52.254;7.988;2022-12-29T05:06:59;2.43;;;1.10;;
47531;SDS011;33273;52.254;7.988;2022-12-29T05:11:52;2.10;;;1.13;;
47531;SDS011;33273;52.254;7.988;2022-12-29T05:14:18;3.00;;;1.85;;
47531;SDS011;33273;52.254;7.988;2022-12-29T05:16:44;2.45;;;1.17;;
47531;SDS011;33273;52.254;7.988;2022-12-29T05:19:11;20.45;;;2.20;;
47531;SDS011;33273;52.254;7.988;2022-12-29T05:21:37;2.10;;;1.10;;
47531;SDS011;33273;52.254;7.988;2022-12-29T05:24:03;1.65;;;1.00;;
47531;SDS011;33273;52.254;7.988;2022-12-29T05:29:03;1.48;;;1.00;;
47531;SDS011;33273;52.254;7.988;2022-12-29T05:31:29;2.07;;;1.23;;
47531;SDS011;33273;52.254;7.988;2022-12-29T05:33:55;2.77;;;1.00;;
47531;SDS011;33273;52.254;7.988;2022-12-29T05:36:21;3.88;;;1.10;;
47531;SDS011;33273;52.254;7.988;2022-12-29T05:38:51;2.97;;;1.60;;
47531;SDS011;33273;52.254;7.988;2022-12-29T05:41:17;3.08;;;1.17;;
47531;SDS011;33273;52.254;7.988;2022-12-29T05:44:04;2.38;;;1.40;;
47531;SDS011;33273;52.254;7.988;2022-12-29T05:46:43;2.15;;;1.00;;
47531;SDS011;33273;52.254;7.988;2022-12-29T05:49:15;2.00;;;0.90;;
47531;SDS011;33273;52.254;7.988;2022-12-29T05:51:57;3.75;;;0.90;;
47531;SDS011;33273;52.254;7.988;2022-12-29T05:54:23;1.05;;;0.60;;
47531;SDS011;33273;52.254;7.988;2022-12-29T05:56:50;1.45;;;1.10;;
47531;SDS011;33273;52.254;7.988;2022-12-29T05:59:23;0.85;;;0.60;;
47531;SDS011;33273;52.254;7.988;2022-12-29T06:01:50;1.60;;;0.68;;
47531;SDS011;33273;52.254;7.988;2022-12-29T06:04:16;2.08;;;0.63;;
47531;SDS011;33273;52.254;7.988;2022-12-29T06:06:42;0.90;;;0.55;;
47531;SDS011;33273;52.254;7.988;2022-12-29T06:09:15;0.75;;;0.65;;
47531;SDS011;33273;52.254;7.988;2022-12-29T06:11:41;1.35;;;0.65;;
47531;SDS011;33273;52.254;7.988;2022-12-29T06:14:08;0.88;;;0.60;;
47531;SDS011;33273;52.254;7.988;2022-12-29T06:16:34;2.63;;;0.55;;
47531;SDS011;33273;52.254;7.988;2022-12-29T06:19:04;0.95;;;0.52;;
47531;SDS011;33273;52.254;7.988;2022-12-29T06:21:30;2.45;;;0.52;;
47531;SDS011;33273;52.254;7.988;2022-12-29T06:23:59;1.75;;;0.63;;
47531;SDS011;33273;52.254;7.988;2022-12-29T06:26:25;0.90;;;0.60;;
47531;SDS011;33273;52.254;7.988;2022-12-29T06:28:51;0.67;;;0.50;;
47531;SDS011;33273;52.254;7.988;2022-12-29T06:31:16;1.43;;;0.67;;
47531;SDS011;33273;52.254;7.988;2022-12-29T06:33:44;2.97;;;0.70;;
47531;SDS011;33273;52.254;7.988;2022-12-29T06:36:09;2.23;;;0.60;;
47531;SDS011;33273;52.254;7.988;2022-12-29T06:38:36;1.98;;;0.68;;
47531;SDS011;33273;52.254;7.988;2022-12-29T06:41:03;2.50;;;0.90;;
47531;SDS011;33273;52.254;7.988;2022-12-29T06:43:36;1.80;;;0.80;;
47531;SDS011;33273;52.254;7.988;2022-12-29T06:46:23;7.70;;;0.85;;
47531;SDS011;33273;52.254;7.988;2022-12-29T06:48:49;3.07;;;0.90;;
47531;SDS011;33273;52.254;7.988;2022-12-29T06:51:15;7.23;;;1.23;;
47531;SDS011;33273;52.254;7.988;2022-12-29T06:53:40;7.60;;;1.10;;
47531;SDS011;33273;52.254;7.988;2022-12-29T06:56:06;4.50;;;1.23;;
47531;SDS011;33273;52.254;7.988;2022-12-29T07:00:59;6.30;;;1.00;;
47531;SDS011;33273;52.254;7.988;2022-12-29T07:03:25;4.20;;;1.10;;
47531;SDS011;33273;52.254;7.988;2022-12-29T07:05:51;1.90;;;0.77;;
47531;SDS011;33273;52.254;7.988;2022-12-29T07:08:17;4.15;;;1.30;;
47531;SDS011;33273;52.254;7.988;2022-12-29T07:10:43;1.73;;;1.00;;
47531;SDS011;33273;52.254;7.988;2022-12-29T07:13:09;5.13;;;1.00;;
47531;SDS011;33273;52.254;7.988;2022-12-29T07:15:36;7.13;;;1.23;;
47531;SDS011;33273;52.254;7.988;2022-12-29T07:18:04;5.18;;;1.13;;
47531;SDS011;33273;52.254;7.988;2022-12-29T07:20:30;3.00;;;1.00;;
47531;SDS011;33273;52.254;7.988;2022-12-29T07:22:57;5.10;;;1.10;;
47531;SDS011;33273;52.254;7.988;2022-12-29T07:25:26;4.00;;;1.00;;
47531;SDS011;33273;52.254;7.988;2022-12-29T07:27:53;2.13;;;0.88;;
47531;SDS011;33273;52.254;7.988;2022-12-29T07:30:19;3.30;;;1.00;;
47531;SDS011;33273;52.254;7.988;2022-12-29T07:32:45;3.33;;;1.35;;
47531;SDS011;33273;52.254;7.988;2022-12-29T07:35:10;2.93;;;0.90;;
47531;SDS011;33273;52.254;7.988;2022-12-29T07:37:36;5.32;;;1.13;;
47531;SDS011;33273;52.254;7.988;2022-12-29T07:40:03;4.70;;;1.10;;
47531;SDS011;33273;52.254;7.988;2022-12-29T07:42:29;4.57;;;1.20;;
47531;SDS011;33273;52.254;7.988;2022-12-29T07:44:58;7.85;;;1.98;;
47531;SDS011;33273;52.254;7.988;2022-12-29T07:47:27;3.17;;;1.10;;
47531;SDS011;33273;52.254;7.988;2022-12-29T07:49:54;3.22;;;1.08;;
47531;SDS011;33273;52.254;7.988;2022-12-29T07:52:20;4.72;;;1.10;;
47531;SDS011;33273;52.254;7.988;2022-12-29T07:54:46;2.50;;;1.20;;
47531;SDS011;33273;52.254;7.988;2022-12-29T07:57:12;3.53;;;1.10;;
47531;SDS011;33273;52.254;7.988;2022-12-29T07:59:38;6.47;;;1.17;;
47531;SDS011;33273;52.254;7.988;2022-12-29T08:02:04;6.13;;;1.30;;
47531;SDS011;33273;52.254;7.988;2022-12-29T08:04:30;7.40;;;1.30;;
47531;SDS011;33273;52.254;7.988;2022-12-29T08:06:56;2.13;;;0.90;;
47531;SDS011;33273;52.254;7.988;2022-12-29T08:09:22;4.53;;;1.50;;
47531;SDS011;33273;52.254;7.988;2022-12-29T08:11:48;3.63;;;1.30;;
47531;SDS011;33273;52.254;7.988;2022-12-29T08:14:14;2.57;;;1.00;;
47531;SDS011;33273;52.254;7.988;2022-12-29T08:16:40;2.93;;;1.10;;
47531;SDS011;33273;52.254;7.988;2022-12-29T08:19:06;4.07;;;1.10;;
47531;SDS011;33273;52.254;7.988;2022-12-29T08:21:32;6.00;;;1.40;;
47531;SDS011;33273;52.254;7.988;2022-12-29T08:23:57;3.47;;;1.30;;
47531;SDS011;33273;52.254;7.988;2022-12-29T08:26:24;6.88;;;1.23;;
47531;SDS011;33273;52.254;7.988;2022-12-29T08:28:52;3.60;;;1.30;;
47531;SDS011;33273;52.254;7.988;2022-12-29T08:31:18;3.60;;;1.38;;
47531;SDS011;33273;52.254;7.988;2022-12-29T08:33:46;4.65;;;1.23;;
47531;SDS011;33273;52.254;7.988;2022-12-29T08:36:12;4.63;;;1.30;;
47531;SDS011;33273;52.254;7.988;2022-12-29T08:38:38;2.90;;;1.57;;
47531;SDS011;33273;52.254;7.988;2022-12-29T08:41:04;4.32;;;0.90;;
47531;SDS011;33273;52.254;7.988;2022-12-29T08:43:30;4.65;;;1.00;;
47531;SDS011;33273;52.254;7.988;2022-12-29T08:45:57;1.73;;;0.90;;
47531;SDS011;33273;52.254;7.988;2022-12-29T08:48:23;5.53;;;1.10;;
47531;SDS011;33273;52.254;7.988;2022-12-29T08:50:49;4.43;;;1.20;;
47531;SDS011;33273;52.254;7.988;2022-12-29T08:53:16;4.43;;;1.30;;
47531;SDS011;33273;52.254;7.988;2022-12-29T08:55:44;8.07;;;1.50;;
47531;SDS011;33273;52.254;7.988;2022-12-29T08:58:11;3.63;;;1.10;;
47531;SDS011;33273;52.254;7.988;2022-12-29T09:00:43;2.15;;;0.82;;
47531;SDS011;33273;52.254;7.988;2022-12-29T09:03:09;1.85;;;1.00;;
47531;SDS011;33273;52.254;7.988;2022-12-29T09:05:35;5.28;;;1.30;;
47531;SDS011;33273;52.254;7.988;2022-12-29T09:08:01;3.42;;;1.40;;
47531;SDS011;33273;52.254;7.988;2022-12-29T09:10:27;4.70;;;1.20;;
47531;SDS011;33273;52.254;7.988;2022-12-29T09:12:53;2.78;;;1.15;;
47531;SDS011;33273;52.254;7.988;2022-12-29T09:15:19;6.33;;;1.20;;
47531;SDS011;33273;52.254;7.988;2022-12-29T09:17:46;5.38;;;1.20;;
47531;SDS011;33273;52.254;7.988;2022-12-29T09:20:15;6.13;;;1.23;;
47531;SDS011;33273;52.254;7.988;2022-12-29T09:22:43;2.38;;;1.13;;
47531;SDS011;33273;52.254;7.988;2022-12-29T09:25:10;7.47;;;2.30;;
47531;SDS011;33273;52.254;7.988;2022-12-29T09:30:03;4.60;;;1.17;;
47531;SDS011;33273;52.254;7.988;2022-12-29T09:32:31;4.30;;;1.20;;
47531;SDS011;33273;52.254;7.988;2022-12-29T09:34:59;5.18;;;1.40;;
47531;SDS011;33273;52.254;7.988;2022-12-29T09:37:25;7.15;;;1.20;;
47531;SDS011;33273;52.254;7.988;2022-12-29T09:39:51;2.25;;;1.10;;
47531;SDS011;33273;52.254;7.988;2022-12-29T09:42:32;4.37;;;1.50;;
47531;SDS011;33273;52.254;7.988;2022-12-29T09:45:18;4.93;;;1.15;;
47531;SDS011;33273;52.254;7.988;2022-12-29T09:47:57;5.88;;;1.30;;
47531;SDS011;33273;52.254;7.988;2022-12-29T09:50:28;3.45;;;1.50;;
47531;SDS011;33273;52.254;7.988;2022-12-29T09:52:59;2.92;;;0.98;;
47531;SDS011;33273;52.254;7.988;2022-12-29T09:55:30;8.77;;;1.90;;
47531;SDS011;33273;52.254;7.988;2022-12-29T10:07:01;6.50;;;1.50;;
47531;SDS011;33273;52.254;7.988;2022-12-29T10:23:50;6.82;;;1.40;;
47531;SDS011;33273;52.254;7.988;2022-12-29T10:26:21;4.95;;;1.45;;
47531;SDS011;33273;52.254;7.988;2022-12-29T10:28:59;6.78;;;1.60;;
47531;SDS011;33273;52.254;7.988;2022-12-29T10:31:33;2.80;;;1.25;;
47531;SDS011;33273;52.254;7.988;2022-12-29T10:34:18;7.10;;;1.40;;
47531;SDS011;33273;52.254;7.988;2022-12-29T10:36:46;7.47;;;1.83;;
47531;SDS011;33273;52.254;7.988;2022-12-29T10:39:37;4.38;;;1.30;;
47531;SDS011;33273;52.254;7.988;2022-12-29T10:44:53;3.83;;;1.30;;
47531;SDS011;33273;52.254;7.988;2022-12-29T10:47:28;5.82;;;1.48;;
47531;SDS011;33273;52.254;7.988;2022-12-29T10:49:59;4.22;;;1.30;;
47531;SDS011;33273;52.254;7.988;2022-12-29T10:52:30;4.97;;;1.27;;
47531;SDS011;33273;52.254;7.988;2022-12-29T10:55:08;3.63;;;1.70;;
47531;SDS011;33273;52.254;7.988;2022-12-29T10:57:48;6.00;;;1.48;;
47531;SDS011;33273;52.254;7.988;2022-12-29T11:00:18;3.05;;;1.27;;
47531;SDS011;33273;52.254;7.988;2022-12-29T11:08:16;9.38;;;1.45;;
47531;SDS011;33273;52.254;7.988;2022-12-29T11:10:56;5.22;;;1.38;;
47531;SDS011;33273;52.254;7.988;2022-12-29T11:13:31;7.93;;;1.42;;
47531;SDS011;33273;52.254;7.988;2022-12-29T11:16:33;4.82;;;1.50;;
47531;SDS011;33273;52.254;7.988;2022-12-29T11:19:00;4.63;;;1.20;;
47531;SDS011;33273;52.254;7.988;2022-12-29T11:21:30;5.28;;;1.55;;
47531;SDS011;33273;52.254;7.988;2022-12-29T11:26:46;3.90;;;1.50;;
47531;SDS011;33273;52.254;7.988;2022-12-29T11:29:39;4.75;;;1.33;;
47531;SDS011;33273;52.254;7.988;2022-12-29T11:32:40;7.80;;;1.33;;
47531;SDS011;33273;52.254;7.988;2022-12-29T11:34:59;4.70;;;1.50;;
47531;SDS011;33273;52.254;7.988;2022-12-29T11:40:03;5.95;;;1.50;;
47531;SDS011;33273;52.254;7.988;2022-12-29T11:42:46;4.70;;;1.30;;
47531;SDS011;33273;52.254;7.988;2022-12-29T11:45:16;4.95;;;1.40;;
47531;SDS011;33273;52.254;7.988;2022-12-29T11:47:52;6.22;;;1.88;;
47531;SDS011;33273;52.254;7.988;2022-12-29T11:50:49;7.95;;;1.65;;
47531;SDS011;33273;52.254;7.988;2022-12-29T11:53:32;5.95;;;1.92;;
47531;SDS011;33273;52.254;7.988;2022-12-29T11:56:04;6.15;;;2.10;;
47531;SDS011;33273;52.254;7.988;2022-12-29T11:58:34;3.78;;;1.15;;
47531;SDS011;33273;52.254;7.988;2022-12-29T12:01:05;5.88;;;1.38;;
47531;SDS011;33273;52.254;7.988;2022-12-29T12:03:35;7.28;;;1.70;;
47531;SDS011;33273;52.254;7.988;2022-12-29T12:06:05;4.60;;;1.30;;
47531;SDS011;33273;52.254;7.988;2022-12-29T12:08:37;4.18;;;1.30;;
47531;SDS011;33273;52.254;7.988;2022-12-29T12:11:20;4.70;;;1.33;;
47531;SDS011;33273;52.254;7.988;2022-12-29T12:16:55;2.42;;;1.15;;
47531;SDS011;33273;52.254;7.988;2022-12-29T12:19:41;5.15;;;1.83;;
47531;SDS011;33273;52.254;7.988;2022-12-29T12:27:52;4.40;;;1.42;;
47531;SDS011;33273;52.254;7.988;2022-12-29T12:30:26;6.82;;;1.27;;
47531;SDS011;33273;52.254;7.988;2022-12-29T12:33:31;10.30;;;2.20;;
47531;SDS011;33273;52.254;7.988;2022-12-29T12:39:14;5.18;;;1.30;;
47531;SDS011;33273;52.254;7.988;2022-12-29T12:47:41;5.18;;;1.42;;
47531;SDS011;33273;52.254;7.988;2022-12-29T13:07:13;8.48;;;2.38;;
47531;SDS011;33273;52.254;7.988;2022-12-29T13:12:41;7.20;;;1.48;;
47531;SDS011;33273;52.254;7.988;2022-12-29T13:20:50;5.13;;;1.67;;
47531;SDS011;33273;52.254;7.988;2022-12-29T13:23:38;5.13;;;1.77;;
47531;SDS011;33273;52.254;7.988;2022-12-29T13:26:14;6.75;;;1.83;;
47531;SDS011;33273;52.254;7.988;2022-12-29T13:34:24;3.53;;;1.50;;
47531;SDS011;33273;52.254;7.988;2022-12-29T13:37:25;4.38;;;1.33;;
47531;SDS011;33273;52.254;7.988;2022-12-29T13:39:59;4.97;;;1.52;;
47531;SDS011;33273;52.254;7.988;2022-12-29T13:42:28;5.05;;;1.45;;
47531;SDS011;33273;52.254;7.988;2022-12-29T13:44:59;6.32;;;1.30;;
47531;SDS011;33273;52.254;7.988;2022-12-29T13:50:05;4.68;;;1.52;;
47531;SDS011;33273;52.254;7.988;2022-12-29T13:52:48;4.30;;;1.67;;
47531;SDS011;33273;52.254;7.988;2022-12-29T13:55:34;7.22;;;2.10;;
47531;SDS011;33273;52.254;7.988;2022-12-29T14:00:48;5.80;;;1.60;;
47531;SDS011;33273;52.254;7.988;2022-12-29T14:06:14;8.68;;;1.90;;
47531;SDS011;33273;52.254;7.988;2022-12-29T14:08:44;4.93;;;1.70;;
47531;SDS011;33273;52.254;7.988;2022-12-29T14:11:11;5.80;;;2.08;;
47531;SDS011;33273;52.254;7.988;2022-12-29T14:13:43;5.60;;;1.65;;
47531;SDS011;33273;52.254;7.988;2022-12-29T14:16:24;6.80;;;1.60;;
47531;SDS011;33273;52.254;7.988;2022-12-29T14:19:05;8.60;;;1.73;;
47531;SDS011;33273;52.254;7.988;2022-12-29T14:21:38;5.68;;;1.98;;
47531;SDS011;33273;52.254;7.988;2022-12-29T14:26:53;6.78;;;1.95;;
47531;SDS011;33273;52.254;7.988;2022-12-29T14:31:51;4.25;;;1.63;;
47531;SDS011;33273;52.254;7.988;2022-12-29T14:37:02;4.90;;;1.50;;
47531;SDS011;33273;52.254;7.988;2022-12-29T14:39:38;6.18;;;1.60;;
47531;SDS011;33273;52.254;7.988;2022-12-29T14:47:22;6.07;;;2.20;;
47531;SDS011;33273;52.254;7.988;2022-12-29T14:52:53;8.85;;;2.90;;
47531;SDS011;33273;52.254;7.988;2022-12-29T14:55:46;5.30;;;1.73;;
47531;SDS011;33273;52.254;7.988;2022-12-29T15:01:03;5.93;;;2.10;;
47531;SDS011;33273;52.254;7.988;2022-12-29T15:03:44;8.80;;;2.35;;
47531;SDS011;33273;52.254;7.988;2022-12-29T15:06:15;7.50;;;1.75;;
47531;SDS011;33273;52.254;7.988;2022-12-29T15:14:29;8.38;;;1.90;;
47531;SDS011;33273;52.254;7.988;2022-12-29T15:16:55;7.60;;;1.92;;
47531;SDS011;33273;52.254;7.988;2022-12-29T15:19:22;9.90;;;2.20;;
47531;SDS011;33273;52.254;7.988;2022-12-29T15:21:49;9.75;;;2.00;;
47531;SDS011;33273;52.254;7.988;2022-12-29T15:24:15;4.30;;;1.77;;
47531;SDS011;33273;52.254;7.988;2022-12-29T15:26:42;5.53;;;2.17;;
47531;SDS011;33273;52.254;7.988;2022-12-29T15:31:57;7.03;;;2.25;;
47531;SDS011;33273;52.254;7.988;2022-12-29T15:34:25;6.20;;;1.80;;
47531;SDS011;33273;52.254;7.988;2022-12-29T15:36:56;6.53;;;1.80;;
47531;SDS011;33273;52.254;7.988;2022-12-29T15:39:28;9.50;;;2.42;;
47531;SDS011;33273;52.254;7.988;2022-12-29T15:41:56;8.75;;;1.90;;
47531;SDS011;33273;52.254;7.988;2022-12-29T15:44:34;6.32;;;1.80;;
47531;SDS011;33273;52.254;7.988;2022-12-29T15:47:22;6.53;;;2.33;;
47531;SDS011;33273;52.254;7.988;2022-12-29T15:50:05;8.52;;;1.67;;
47531;SDS011;33273;52.254;7.988;2022-12-29T15:52:40;3.70;;;1.58;;
47531;SDS011;33273;52.254;7.988;2022-12-29T15:57:59;6.90;;;1.83;;
47531;SDS011;33273;52.254;7.988;2022-12-29T16:00:28;9.77;;;2.35;;
47531;SDS011;33273;52.254;7.988;2022-12-29T16:02:57;9.93;;;1.90;;
47531;SDS011;33273;52.254;7.988;2022-12-29T16:05:30;8.40;;;2.10;;
47531;SDS011;33273;52.254;7.988;2022-12-29T16:08:00;6.95;;;1.90;;
47531;SDS011;33273;52.254;7.988;2022-12-29T16:10:38;9.85;;;1.92;;
47531;SDS011;33273;52.254;7.988;2022-12-29T16:16:02;3.88;;;1.50;;
47531;SDS011;33273;52.254;7.988;2022-12-29T16:18:34;4.80;;;1.63;;
47531;SDS011;33273;52.254;7.988;2022-12-29T16:21:02;5.47;;;1.80;;
47531;SDS011;33273;52.254;7.988;2022-12-29T16:23:30;3.83;;;1.73;;
47531;SDS011;33273;52.254;7.988;2022-12-29T16:25:57;4.60;;;2.05;;
47531;SDS011;33273;52.254;7.988;2022-12-29T16:30:59;4.35;;;2.08;;
47531;SDS011;33273;52.254;7.988;2022-12-29T16:33:36;4.82;;;1.65;;
47531;SDS011;33273;52.254;7.988;2022-12-29T16:36:23;2.92;;;1.40;;
47531;SDS011;33273;52.254;7.988;2022-12-29T16:38:50;4.70;;;1.60;;
47531;SDS011;33273;52.254;7.988;2022-12-29T16:41:28;4.80;;;1.63;;
47531;SDS011;33273;52.254;7.988;2022-12-29T16:46:44;2.28;;;1.20;;
47531;SDS011;33273;52.254;7.988;2022-12-29T16:49:37;4.95;;;1.75;;
47531;SDS011;33273;52.254;7.988;2022-12-29T16:52:12;4.30;;;1.55;;
47531;SDS011;33273;52.254;7.988;2022-12-29T16:54:56;5.43;;;1.60;;
47531;SDS011;33273;52.254;7.988;2022-12-29T16:57:27;3.80;;;2.08;;
47531;SDS011;33273;52.254;7.988;2022-12-29T16:59:59;3.60;;;1.70;;
47531;SDS011;33273;52.254;7.988;2022-12-29T17:02:28;6.65;;;2.53;;
47531;SDS011;33273;52.254;7.988;2022-12-29T17:05:02;8.32;;;2.10;;
47531;SDS011;33273;52.254;7.988;2022-12-29T17:07:31;10.07;;;1.98;;
47531;SDS011;33273;52.254;7.988;2022-12-29T17:09:56;6.43;;;1.75;;
47531;SDS011;33273;52.254;7.988;2022-12-29T17:12:26;6.32;;;1.95;;
47531;SDS011;33273;52.254;7.988;2022-12-29T17:15:02;7.53;;;1.85;;
47531;SDS011;33273;52.254;7.988;2022-12-29T17:17:54;5.60;;;1.83;;
47531;SDS011;33273;52.254;7.988;2022-12-29T17:20:25;5.38;;;1.73;;
47531;SDS011;33273;52.254;7.988;2022-12-29T17:22:56;6.88;;;3.00;;
47531;SDS011;33273;52.254;7.988;2022-12-29T17:25:27;5.75;;;2.20;;
47531;SDS011;33273;52.254;7.988;2022-12-29T17:30:25;8.90;;;2.53;;
47531;SDS011;33273;52.254;7.988;2022-12-29T17:32:53;4.65;;;2.10;;
47531;SDS011;33273;52.254;7.988;2022-12-29T17:35:33;5.50;;;1.77;;
47531;SDS011;33273;52.254;7.988;2022-12-29T17:38:01;5.32;;;2.13;;
47531;SDS011;33273;52.254;7.988;2022-12-29T17:40:34;5.82;;;2.03;;
47531;SDS011;33273;52.254;7.988;2022-12-29T17:43:02;5.85;;;1.95;;
47531;SDS011;33273;52.254;7.988;2022-12-29T17:45:29;5.75;;;1.85;;
47531;SDS011;33273;52.254;7.988;2022-12-29T17:47:59;8.77;;;2.10;;
47531;SDS011;33273;52.254;7.988;2022-12-29T17:50:26;8.23;;;2.20;;
47531;SDS011;33273;52.254;7.988;2022-12-29T17:53:06;6.10;;;1.60;;
47531;SDS011;33273;52.254;7.988;2022-12-29T17:55:44;8.65;;;1.90;;
47531;SDS011;33273;52.254;7.988;2022-12-29T18:00:43;12.02;;;2.50;;
47531;SDS011;33273;52.254;7.988;2022-12-29T18:03:28;3.40;;;1.67;;
47531;SDS011;33273;52.254;7.988;2022-12-29T18:05:57;5.35;;;1.90;;
47531;SDS011;33273;52.254;7.988;2022-12-29T18:08:24;7.93;;;1.88;;
47531;SDS011;33273;52.254;7.988;2022-12-29T18:10:53;9.10;;;2.20;;
47531;SDS011;33273;52.254;7.988;2022-12-29T18:13:20;6.32;;;1.73;;
47531;SDS011;33273;52.254;7.988;2022-12-29T18:15:50;4.30;;;1.80;;
47531;SDS011;33273;52.254;7.988;2022-12-29T18:18:24;6.30;;;2.10;;
47531;SDS011;33273;52.254;7.988;2022-12-29T18:20:52;4.53;;;1.45;;
47531;SDS011;33273;52.254;7.988;2022-12-29T18:23:21;4.20;;;1.40;;
47531;SDS011;33273;52.254;7.988;2022-12-29T18:25:50;5.75;;;1.73;;
47531;SDS011;33273;52.254;7.988;2022-12-29T18:28:37;4.30;;;1.70;;
47531;SDS011;33273;52.254;7.988;2022-12-29T18:31:12;9.48;;;2.08;;
47531;SDS011;33273;52.254;7.988;2022-12-29T18:33:50;4.90;;;2.05;;